Allendale, California
Current Conditions -  °F | °C
As of 9:53 PM on Thursday 30 Oct 2014 (Local Time) from KVCB Reporting Station
Clear Clear  
Wind Chill: 65°   Ceiling: Unl
Heat Index: 65°   Visibility: 10mi
Dew Point: 54°   Wind: 10mph
Humidity: 68%   Direction: 200°SSW
Pressure: 29.86"   Gusts: 18mph
Location:  38.4195°N, 122.026°W
Report Text: KVCB 310453Z AUTO 20009G16KT 10SM CLR 18/12 A2986 RMK AO2 SLP112 T01830122 TSNO
Loading
Personal Weather Stations






























Interactive Weather Map New forecast layout! Learn more

10-Day Weather Forecast

Advertisements
Track Severe Weather on mobile